Time;durP1;ratioP1;P1;durP2;ratioP2;P2;SDS_P1;SDS_P2;PMS_P1;PMS_P2;Temp;Humidity;BMP_temperature;BMP_pressure;BME280_temperature;BME280_humidity;BME280_pressure;Samples;Min_cycle;Max_cycle;Signal;HPM_P1;HPM_P2
2022/11/18 00:01:23;;;;;;;1.52;1.10;;;;;;;10.17;69.18;94902.16;6239460;23;20051;-82
2022/11/18 00:03:51;;;;;;;1.60;1.23;;;;;;;10.06;69.39;94903.72;6240266;23;20036;-82
2022/11/18 00:06:22;;;;;;;1.20;1.08;;;;;;;10.02;69.80;94905.16;6241333;22;20019;-80
2022/11/18 00:08:52;;;;;;;1.55;0.82;;;;;;;10.05;70.09;94919.56;6242235;22;20024;-81
2022/11/18 00:14:22;;;;;;;1.45;0.60;;;;;;;10.10;72.63;94914.47;6243203;22;20048;-81
2022/11/18 00:16:53;;;;;;;2.22;0.77;;;;;;;10.07;70.61;94914.91;6240933;22;20068;-82
2022/11/18 00:19:22;;;;;;;1.00;0.60;;;;;;;10.04;70.34;94900.53;6237043;23;20030;-82
2022/11/18 00:21:50;;;;;;;1.27;0.80;;;;;;;10.03;70.59;94898.91;6237592;23;20021;-81
2022/11/18 00:24:19;;;;;;;0.70;0.47;;;;;;;10.04;71.20;94897.13;6237433;23;20485;-82
2022/11/18 00:26:47;;;;;;;0.20;0.10;;;;;;;10.04;71.01;94884.91;6237611;23;20029;-82
2022/11/18 00:29:15;;;;;;;0.40;0.30;;;;;;;10.02;70.84;94886.13;6237918;23;20068;-81
2022/11/18 00:31:44;;;;;;;0.17;0.17;;;;;;;9.99;70.16;94892.59;6242898;22;20035;-81
2022/11/18 00:34:13;;;;;;;1.80;0.20;;;;;;;9.98;69.61;94890.97;6243019;22;20052;-81
2022/11/18 00:36:42;;;;;;;0.47;0.20;;;;;;;9.99;70.67;94883.94;6243186;22;20009;-81
2022/11/18 00:39:11;;;;;;;0.30;0.20;;;;;;;10.00;69.39;94885.56;6236559;23;20024;-80
2022/11/18 00:44:25;;;;;;;0.40;0.28;;;;;;;9.97;69.19;94883.38;6235951;23;20020;-79
2022/11/18 00:46:53;;;;;;;0.20;0.20;;;;;;;9.93;69.10;94892.63;6236382;23;20047;-79
2022/11/18 00:49:21;;;;;;;0.50;0.10;;;;;;;9.91;69.47;94885.06;6233259;23;20044;-79
2022/11/18 00:51:49;;;;;;;0.22;0.05;;;;;;;9.90;68.98;94886.88;6233764;23;20036;-82
2022/11/18 00:54:17;;;;;;;0.13;0.13;;;;;;;9.88;68.76;94894.13;6234286;23;20019;-81
2022/11/18 00:56:46;;;;;;;0.90;0.20;;;;;;;9.92;70.79;94896.28;6235669;23;20021;-82
2022/11/18 00:59:13;;;;;;;1.00;0.20;;;;;;;9.96;71.30;94902.63;6234350;23;20020;-82
2022/11/18 01:01:41;;;;;;;0.10;0.03;;;;;;;9.98;70.17;94914.41;6236857;23;20068;-81
2022/11/18 01:04:09;;;;;;;0.45;0.10;;;;;;;10.00;69.49;94912.41;6236669;23;20020;-82
2022/11/18 01:06:37;;;;;;;0.65;0.10;;;;;;;10.00;69.68;94915.00;6236691;23;20023;-81
2022/11/18 01:09:05;;;;;;;0.40;0.30;;;;;;;10.03;71.11;94916.38;6237354;23;20024;-81
2022/11/18 01:14:19;;;;;;;1.05;0.40;;;;;;;9.99;69.49;94913.41;6236981;23;20024;-83
2022/11/18 01:16:49;;;;;;;0.90;0.25;;;;;;;9.94;69.08;94909.88;6238331;23;20084;-82
2022/11/18 01:19:17;;;;;;;1.08;0.30;;;;;;;9.86;68.98;94911.78;6237602;23;20035;-82
2022/11/18 01:21:46;;;;;;;0.82;0.30;;;;;;;9.83;69.27;94911.41;6237672;23;20017;-81
2022/11/18 01:24:14;;;;;;;0.50;0.20;;;;;;;9.82;69.47;94913.22;6237912;23;20068;-81
2022/11/18 01:26:42;;;;;;;0.70;0.13;;;;;;;9.83;69.30;94917.41;6239534;23;20024;-82
2022/11/18 01:29:10;;;;;;;0.63;0.47;;;;;;;9.83;69.25;94917.41;6239163;23;20044;-81
2022/11/18 01:31:39;;;;;;;0.30;0.30;;;;;;;9.84;69.95;94916.41;6239800;23;20024;-82
2022/11/18 01:34:27;;;;;;;0.30;0.10;;;;;;;9.87;70.23;94913.34;6239743;23;20024;-82
2022/11/18 01:36:57;;;;;;;0.28;0.20;;;;;;;9.87;69.58;94912.56;6239776;23;20072;-82
2022/11/18 01:39:25;;;;;;;1.08;0.28;;;;;;;9.85;69.65;94911.97;6240053;23;20027;-82
2022/11/18 01:41:52;;;;;;;0.38;0.28;;;;;;;9.83;69.56;94904.38;6240115;23;20016;-82
2022/11/18 01:45:09;;;;;;;0.52;0.20;;;;;;;9.85;70.62;94912.75;6241205;23;20115;-82
2022/11/18 01:47:42;;;;;;;1.23;0.22;;;;;;;9.84;70.51;94911.19;6189049;23;20067;-82
2022/11/18 01:50:10;;;;;;;0.85;0.30;;;;;;;9.83;70.85;94909.59;6240286;23;20055;-82
2022/11/18 01:52:39;;;;;;;0.22;0.10;;;;;;;9.82;70.16;94905.41;6240760;23;20021;-82
2022/11/18 01:55:14;;;;;;;0.30;0.20;;;;;;;9.82;71.77;94913.22;6241152;23;20077;-82
2022/11/18 01:57:43;;;;;;;0.30;0.30;;;;;;;9.80;70.57;94899.63;6240758;23;20028;-82
2022/11/18 02:00:12;;;;;;;2.35;1.33;;;;;;;9.77;70.11;94905.25;6240332;23;20028;-81
2022/11/18 02:02:41;;;;;;;2.55;0.60;;;;;;;9.72;69.96;94907.72;6240391;23;20030;-82
2022/11/18 02:05:11;;;;;;;1.10;0.70;;;;;;;9.72;70.63;94907.72;6239982;23;20021;-82
2022/11/18 02:07:42;;;;;;;1.95;0.80;;;;;;;9.72;70.14;94912.13;6240309;23;20008;-81
2022/11/18 02:10:18;;;;;;;0.82;0.60;;;;;;;9.73;71.33;94908.50;6239534;23;20075;-82
2022/11/18 02:12:46;;;;;;;1.27;0.70;;;;;;;9.75;70.42;94909.09;6240011;23;20027;-82
2022/11/18 02:15:14;;;;;;;0.77;0.70;;;;;;;9.76;71.30;94915.91;6235338;23;20027;-82
2022/11/18 02:17:51;;;;;;;0.45;0.32;;;;;;;9.77;70.45;94907.06;6236018;23;20017;-82
2022/11/18 02:20:26;;;;;;;0.98;0.30;;;;;;;9.76;70.84;94908.88;6231852;23;20074;-81
2022/11/18 02:23:36;;;;;;;0.47;0.20;;;;;;;9.77;70.46;94905.25;6234856;23;20023;-82
2022/11/18 02:26:45;;;;;;;1.35;0.30;;;;;;;9.75;70.56;94915.09;6235605;23;20403;-81
2022/11/18 02:29:17;;;;;;;0.50;0.20;;;;;;;9.75;70.94;94912.50;6193764;23;20020;-81
2022/11/18 02:31:52;;;;;;;0.20;0.10;;;;;;;9.75;69.92;94915.09;6236966;23;20402;-81
2022/11/18 02:34:32;;;;;;;2.05;0.68;;;;;;;9.76;72.14;94921.88;6237184;23;20048;-82
2022/11/18 02:37:06;;;;;;;0.85;0.40;;;;;;;9.82;72.93;94922.84;6235703;23;20020;-81
2022/11/18 02:39:39;;;;;;;0.38;0.20;;;;;;;9.82;70.51;94918.41;6236585;23;20044;-82
2022/11/18 02:42:11;;;;;;;0.80;0.30;;;;;;;9.81;70.57;94916.81;6236607;23;20040;-82
2022/11/18 02:44:45;;;;;;;0.77;0.30;;;;;;;9.83;72.18;94920.00;6235918;23;20085;-82
2022/11/18 02:47:15;;;;;;;1.05;0.77;;;;;;;9.84;72.08;94924.22;6237131;23;20044;-82
2022/11/18 02:49:48;;;;;;;0.35;0.20;;;;;;;9.84;72.38;94918.22;6236553;23;20490;-82
2022/11/18 02:52:23;;;;;;;0.30;0.20;;;;;;;9.86;72.24;94932.59;6236142;23;20072;-81
2022/11/18 02:54:52;;;;;;;0.22;0.22;;;;;;;9.87;72.52;94934.19;6222581;23;20096;-82
2022/11/18 02:57:22;;;;;;;1.35;0.52;;;;;;;9.89;72.43;94928.75;6237844;23;20044;-81
2022/11/18 02:59:51;;;;;;;2.97;0.35;;;;;;;9.88;71.95;94933.19;6239866;23;20048;-81
2022/11/18 03:02:20;;;;;;;0.13;0.10;;;;;;;9.88;70.87;94935.78;6238576;23;20020;-82
2022/11/18 03:04:51;;;;;;;0.45;0.35;;;;;;;9.89;71.95;94934.75;6238804;23;20025;-81
2022/11/18 03:07:24;;;;;;;1.20;0.50;;;;;;;9.91;72.81;94937.16;6238840;23;20047;-82
2022/11/18 03:09:53;;;;;;;0.70;0.50;;;;;;;9.90;72.49;94941.56;6238950;23;20035;-82
2022/11/18 03:12:27;;;;;;;0.20;0.20;;;;;;;9.89;72.19;94939.97;6238810;23;20025;-82
2022/11/18 03:15:07;;;;;;;0.40;0.30;;;;;;;9.92;73.79;94935.34;6238768;23;20068;-82
2022/11/18 03:17:45;;;;;;;0.30;0.30;;;;;;;9.96;73.67;94937.28;6238199;23;20039;-81
2022/11/18 03:20:20;;;;;;;1.15;0.40;;;;;;;9.98;73.40;94944.88;6237319;23;20012;-81
2022/11/18 03:22:54;;;;;;;3.50;0.60;;;;;;;10.01;74.06;94949.66;6237438;23;20028;-81
2022/11/18 03:25:27;;;;;;;3.20;0.50;;;;;;;10.03;74.15;94948.41;6238421;23;20025;-82
2022/11/18 03:28:03;;;;;;;1.40;0.90;;;;;;;10.05;74.50;94956.81;6237327;23;20356;-82
2022/11/18 03:30:33;;;;;;;0.88;0.68;;;;;;;10.05;73.00;94953.41;6237144;23;20021;-80
2022/11/18 03:33:05;;;;;;;1.85;0.63;;;;;;;10.01;72.96;94962.69;6236493;23;20031;-82
2022/11/18 08:27:24;;;;;;;0.40;0.40;;;;;;;9.20;74.66;95246.25;6218525;22;20027;-82
2022/11/18 08:29:51;;;;;;;1.55;0.70;;;;;;;9.22;74.26;95246.84;6222324;23;20560;-81
2022/11/18 08:32:19;;;;;;;0.73;0.40;;;;;;;9.22;74.86;95252.03;6219768;23;20095;-81
2022/11/18 08:34:46;;;;;;;1.08;0.50;;;;;;;9.22;74.82;95252.03;6216609;23;20027;-81
2022/11/18 08:37:14;;;;;;;1.00;0.32;;;;;;;9.19;75.16;95247.25;6216615;23;20016;-81
2022/11/18 08:39:42;;;;;;;0.40;0.40;;;;;;;9.20;75.09;95258.47;6220120;23;20020;-81
2022/11/18 08:42:10;;;;;;;0.98;0.40;;;;;;;9.16;73.50;95258.09;6220071;23;20099;-81
2022/11/18 08:44:39;;;;;;;0.63;0.63;;;;;;;9.11;73.39;95259.69;6224380;23;20020;-81
2022/11/18 08:47:07;;;;;;;0.57;0.50;;;;;;;9.08;73.99;95256.50;6216613;23;20013;-80
2022/11/18 08:49:34;;;;;;;0.73;0.60;;;;;;;9.06;74.04;95255.91;6214988;23;20035;-81
2022/11/18 08:52:02;;;;;;;1.58;1.00;;;;;;;9.08;74.84;95256.50;6215573;23;20042;-80
2022/11/18 08:54:30;;;;;;;1.80;1.10;;;;;;;9.12;74.94;95276.88;6214692;23;20483;-80
2022/11/18 08:56:58;;;;;;;0.60;0.60;;;;;;;9.05;73.59;95271.72;6214580;23;20039;-80
2022/11/18 08:59:32;;;;;;;0.60;0.60;;;;;;;8.99;73.29;95281.16;6214022;23;20020;-81
2022/11/18 09:02:01;;;;;;;4.75;3.97;;;;;;;8.93;73.56;95283.75;6214494;23;20024;-81
2022/11/18 09:04:29;;;;;;;1.15;1.05;;;;;;;8.90;73.86;95277.16;6214685;23;20021;-80
2022/11/18 09:06:56;;;;;;;1.30;1.20;;;;;;;8.90;74.60;95276.34;6213898;23;20457;-81
2022/11/18 09:09:24;;;;;;;6.38;5.38;;;;;;;8.89;74.25;95277.38;6214091;23;20079;-80
2022/11/18 09:11:51;;;;;;;1.55;1.45;;;;;;;8.89;74.02;95291.16;6213917;23;20020;-81
2022/11/18 09:17:43;;;;;;;2.58;0.70;;;;;;;8.91;73.38;95291.75;6169825;23;20021;-81
2022/11/18 09:20:11;;;;;;;0.60;0.43;;;;;;;8.88;73.59;95284.38;6165017;23;20454;-81
2022/11/18 09:22:39;;;;;;;1.25;0.95;;;;;;;8.87;73.87;95301.75;6163076;23;20020;-81
2022/11/18 09:25:07;;;;;;;1.65;1.55;;;;;;;8.85;73.87;95302.97;6186684;23;20017;-82
2022/11/18 09:27:35;;;;;;;2.30;0.90;;;;;;;8.85;74.44;95305.56;6198079;23;20021;-82
2022/11/18 09:30:04;;;;;;;0.95;0.60;;;;;;;8.87;74.47;95311.38;6192621;23;20021;-81
2022/11/18 09:32:32;;;;;;;0.88;0.50;;;;;;;8.87;74.83;95312.16;6189358;23;20028;-81
2022/11/18 09:37:30;;;;;;;1.42;0.50;;;;;;;8.89;74.28;95318.97;6208380;23;20345;-81
2022/11/18 09:39:58;;;;;;;0.60;0.60;;;;;;;8.88;74.05;95318.19;6209957;23;20112;-79
2022/11/18 09:42:39;;;;;;;1.38;0.82;;;;;;;8.87;74.55;95321.75;6215384;23;20023;-81
2022/11/18 09:45:16;;;;;;;1.30;0.90;;;;;;;8.84;74.17;95322.97;6214323;23;20024;-79
2022/11/18 09:47:51;;;;;;;1.23;0.85;;;;;;;8.81;74.45;95328.59;6217223;23;20590;-79
2022/11/18 09:50:21;;;;;;;1.17;0.65;;;;;;;8.81;74.40;95343.38;6218205;23;20365;-78
2022/11/18 09:53:19;;;;;;;1.90;1.30;;;;;;;8.80;75.12;95345.19;6216587;23;20074;-79
2022/11/18 09:55:48;;;;;;;1.35;0.95;;;;;;;8.82;75.19;95343.19;6219827;23;20032;-80
2022/11/18 09:58:21;;;;;;;4.45;2.00;;;;;;;8.85;75.34;95347.16;6217535;23;20028;-80
2022/11/18 10:00:48;;;;;;;12.32;3.17;;;;;;;8.89;75.27;95350.97;6216312;23;20028;-82
2022/11/18 10:03:23;;;;;;;2.97;2.00;;;;;;;8.92;75.36;95349.75;6216150;23;20021;-82
2022/11/18 10:05:55;;;;;;;1.95;1.50;;;;;;;8.90;74.12;95360.38;6212954;23;20025;-82
2022/11/18 10:08:27;;;;;;;1.33;0.75;;;;;;;8.85;73.88;95361.00;6214640;23;20032;-82
2022/11/18 10:11:03;;;;;;;1.23;1.02;;;;;;;8.86;74.22;95365.19;6217764;23;20033;-83
2022/11/18 10:13:48;;;;;;;1.75;1.15;;;;;;;8.86;74.97;95367.78;6216498;23;20023;-82
2022/11/18 10:16:29;;;;;;;2.95;1.58;;;;;;;8.88;74.99;95370.19;6216182;23;20453;-82
2022/11/18 10:19:05;;;;;;;2.80;1.08;;;;;;;8.90;74.48;95370.78;6216667;23;20025;-82
2022/11/18 10:21:44;;;;;;;1.35;1.17;;;;;;;8.92;75.28;95376.59;6214569;23;20043;-82
2022/11/18 10:24:19;;;;;;;1.83;1.05;;;;;;;8.97;74.95;95384.59;6216104;23;20464;-82
2022/11/18 10:26:47;;;;;;;1.13;0.90;;;;;;;8.98;74.79;95375.75;6215941;23;20082;-82
2022/11/18 10:29:15;;;;;;;1.17;1.08;;;;;;;8.98;74.63;95374.97;6217536;23;20024;-80
2022/11/18 10:31:56;;;;;;;1.42;1.33;;;;;;;9.00;75.29;95381.56;6217021;23;20028;-80
2022/11/18 10:34:31;;;;;;;1.08;0.70;;;;;;;9.01;74.56;95380.59;6218433;23;20129;-79
2022/11/18 10:37:00;;;;;;;2.35;0.40;;;;;;;9.01;73.99;95382.38;6217217;23;20028;-80
2022/11/18 10:39:29;;;;;;;0.75;0.40;;;;;;;9.00;74.27;95381.56;6217306;23;20099;-79
2022/11/18 10:42:01;;;;;;;0.43;0.35;;;;;;;9.02;74.60;95386.56;6217521;23;20364;-80
2022/11/18 10:44:32;;;;;;;1.08;0.65;;;;;;;9.04;74.60;95384.56;6218058;23;20016;-83
2022/11/18 10:47:22;;;;;;;0.98;0.50;;;;;;;9.01;73.93;95391.00;6217028;23;20023;-82
2022/11/18 10:49:50;;;;;;;0.43;0.35;;;;;;;9.01;74.58;95388.38;6216410;23;20031;-83
2022/11/18 10:52:18;;;;;;;0.70;0.70;;;;;;;9.05;74.77;95381.78;6218288;23;20043;-79
2022/11/18 10:55:07;;;;;;;1.65;0.90;;;;;;;9.07;74.33;95379.78;6217515;23;20016;-82
2022/11/18 10:57:37;;;;;;;2.50;1.02;;;;;;;9.08;74.25;95381.38;6216988;23;20016;-83
2022/11/18 11:00:08;;;;;;;2.33;1.85;;;;;;;9.07;74.18;95378.97;6217749;23;20027;-80
2022/11/18 11:02:40;;;;;;;1.40;1.30;;;;;;;9.06;74.20;95378.16;6220589;23;20480;-81
2022/11/18 11:05:18;;;;;;;0.90;0.77;;;;;;;9.01;73.96;95380.59;6226696;23;20544;-81
2022/11/18 11:08:00;;;;;;;0.45;0.45;;;;;;;9.02;74.51;95387.38;6227998;23;20020;-80
2022/11/18 11:10:56;;;;;;;1.77;0.80;;;;;;;9.05;76.34;95386.97;6223350;23;20476;-79
2022/11/18 11:13:27;;;;;;;0.70;0.60;;;;;;;9.10;75.52;95391.59;6217966;23;20028;-80
2022/11/18 11:15:59;;;;;;;1.23;0.70;;;;;;;9.13;75.17;95387.78;6235438;22;20035;-79
2022/11/18 11:18:43;;;;;;;0.60;0.40;;;;;;;9.13;74.78;95388.56;6242643;22;20048;-80
2022/11/18 11:21:12;;;;;;;2.33;0.82;;;;;;;9.16;75.11;95379.53;6224946;23;20027;-80
2022/11/18 11:23:40;;;;;;;2.97;1.23;;;;;;;9.16;75.02;95382.97;6217220;23;20104;-80
2022/11/18 11:26:16;;;;;;;2.30;1.13;;;;;;;9.19;76.01;95387.75;6217127;23;20095;-81
2022/11/18 11:29:12;;;;;;;1.92;1.08;;;;;;;9.19;75.05;95387.75;6215239;23;20774;-81
2022/11/18 11:31:50;;;;;;;2.40;1.77;;;;;;;9.22;75.71;95389.94;6234299;23;20063;-81
2022/11/18 11:34:38;;;;;;;2.83;2.60;;;;;;;9.25;75.24;95386.16;6230358;23;20039;-81
2022/11/18 11:37:26;;;;;;;2.47;2.17;;;;;;;9.28;75.68;95390.94;6225372;23;20017;-82
2022/11/18 11:40:11;;;;;;;2.13;1.73;;;;;;;9.30;75.88;95388.94;6228945;23;20480;-79
2022/11/18 11:42:49;;;;;;;1.30;1.20;;;;;;;9.31;75.72;95384.53;6215827;23;20028;-78
2022/11/18 11:45:19;;;;;;;2.63;2.25;;;;;;;9.29;74.91;95395.13;6220310;23;20017;-81
2022/11/18 11:48:02;;;;;;;5.20;4.20;;;;;;;9.28;75.21;95385.75;6221443;23;20024;-81
2022/11/18 11:50:53;;;;;;;;;;;;;;;9.30;75.64;95388.16;6218225;23;20021;-81
2022/11/18 11:53:52;;;;;;;7.35;4.65;;;;;;;9.30;75.91;95391.53;6216692;23;19915;-81
2022/11/18 11:56:32;;;;;;;5.80;3.50;;;;;;;9.33;76.38;95383.31;6222279;23;20028;-81
2022/11/18 11:59:18;;;;;;;4.20;2.70;;;;;;;9.36;76.39;95390.75;6224305;23;20012;-81
2022/11/18 12:02:01;;;;;;;4.57;2.50;;;;;;;9.36;75.36;95393.34;6217252;23;20041;-83
2022/11/18 12:04:42;;;;;;;2.72;1.88;;;;;;;9.35;75.31;95399.53;6216164;23;20020;-82
2022/11/18 12:07:15;;;;;;;5.28;3.45;;;;;;;9.34;76.16;95395.34;6221030;23;20099;-82
2022/11/18 12:09:57;;;;;;;4.57;3.38;;;;;;;9.35;76.18;95391.72;6215108;23;20021;-83
2022/11/18 12:12:35;;;;;;;4.75;3.30;;;;;;;9.38;76.48;95390.50;6214562;23;20674;-83
2022/11/18 12:15:25;;;;;;;4.13;2.42;;;;;;;9.37;76.25;95387.13;6215599;23;20020;-83
2022/11/18 12:18:02;;;;;;;2.65;2.03;;;;;;;9.38;76.42;95388.72;6215305;23;20021;-83
2022/11/18 12:20:41;;;;;;;1.25;1.15;;;;;;;9.40;76.60;95389.34;6215883;23;20032;-83
2022/11/18 12:23:11;;;;;;;1.48;1.38;;;;;;;9.42;76.01;95392.53;6218546;23;20051;-83
2022/11/18 12:26:01;;;;;;;1.42;1.33;;;;;;;9.43;76.83;95383.72;6241978;22;20035;-81
2022/11/18 12:28:32;;;;;;;1.85;1.55;;;;;;;9.45;76.17;95380.91;6241765;23;20016;-81
2022/11/18 12:31:35;;;;;;;2.60;2.05;;;;;;;9.42;76.45;95384.72;6230753;23;20027;-83
2022/11/18 12:34:05;;;;;;;;;;;;;;;9.45;76.52;95392.13;6218655;23;20028;-83
2022/11/18 12:36:34;;;;;;;1.95;1.70;;;;;;;9.41;76.43;95393.53;6216035;23;19919;-83
2022/11/18 12:39:44;;;;;;;3.97;2.17;;;;;;;9.41;77.24;95396.13;6216367;23;20027;-82
2022/11/18 12:45:57;;;;;;;2.83;1.55;;;;;;;9.39;77.54;95397.34;6220969;23;20016;-83
2022/11/18 12:48:33;;;;;;;1.40;1.20;;;;;;;9.38;76.95;95400.94;6218081;23;20024;-83
2022/11/18 12:51:01;;;;;;;1.08;1.00;;;;;;;9.37;77.38;95400.13;6216798;23;20025;-81
2022/11/18 12:53:37;;;;;;;1.17;1.08;;;;;;;9.40;77.42;95404.13;6223532;23;20104;-81
2022/11/18 12:56:22;;;;;;;0.73;0.73;;;;;;;9.37;77.54;95389.72;6216932;23;20059;-81
2022/11/18 12:58:52;;;;;;;1.35;1.15;;;;;;;9.32;77.11;95397.34;6216617;23;20051;-81
2022/11/18 13:01:22;;;;;;;0.80;0.80;;;;;;;9.28;77.65;95394.34;6215670;23;20024;-81
2022/11/18 13:03:51;;;;;;;2.50;1.30;;;;;;;9.30;77.91;95399.34;6215236;23;20020;-81
2022/11/18 13:06:24;;;;;;;1.75;1.50;;;;;;;9.31;77.99;95410.56;6215459;23;20088;-81
2022/11/18 13:08:55;;;;;;;3.55;1.63;;;;;;;9.33;77.67;95409.34;6217080;23;20393;-81
2022/11/18 13:19:56;;;;;;;2.72;1.92;;;;;;;9.40;78.11;95417.97;6202973;23;20020;-80
2022/11/18 13:25:24;;;;;;;0.85;0.85;;;;;;;9.39;78.03;95415.56;6195422;23;20025;-80
2022/11/18 13:28:00;;;;;;;1.52;1.40;;;;;;;9.39;77.98;95412.94;6209045;23;20024;-81
2022/11/18 13:30:29;;;;;;;1.23;0.85;;;;;;;9.38;77.55;95414.75;6212674;23;20036;-81
2022/11/18 13:32:59;;;;;;;1.73;1.13;;;;;;;9.38;77.76;95413.94;6213022;23;20025;-81
2022/11/18 13:35:28;;;;;;;1.20;1.10;;;;;;;9.36;77.75;95428.94;6216396;23;20012;-81
2022/11/18 13:37:58;;;;;;;1.40;0.90;;;;;;;9.35;78.07;95428.16;6220828;23;20096;-81
2022/11/18 13:40:28;;;;;;;1.20;1.10;;;;;;;9.34;77.72;95431.78;6224227;23;20028;-81
2022/11/18 13:42:56;;;;;;;2.97;1.60;;;;;;;9.32;77.88;95423.38;6222333;23;20017;-81
2022/11/18 13:45:27;;;;;;;1.48;1.38;;;;;;;9.30;77.49;95419.38;6227646;23;20048;-81
2022/11/18 13:48:00;;;;;;;1.80;1.50;;;;;;;9.28;78.11;95428.16;6228222;23;20650;-81
2022/11/18 13:50:33;;;;;;;3.13;1.90;;;;;;;9.30;78.16;95422.78;6224591;23;20021;-81
2022/11/18 13:53:08;;;;;;;;;;;;;;;9.31;78.13;95432.16;6221917;23;20024;-81
2022/11/18 13:55:51;;;;;;;1.75;1.65;;;;;;;9.32;77.61;95438.19;6218743;23;19959;-81
2022/11/18 13:58:33;;;;;;;3.28;2.58;;;;;;;9.36;78.05;95440.19;6218912;23;20404;-83
2022/11/18 14:01:23;;;;;;;4.28;2.03;;;;;;;9.37;77.57;95446.97;6217453;23;20021;-83
2022/11/18 14:03:53;;;;;;;1.75;1.40;;;;;;;9.37;77.63;95436.56;6218576;23;20016;-83
2022/11/18 14:06:26;;;;;;;1.85;1.40;;;;;;;9.39;77.94;95444.97;6219862;23;20013;-83
2022/11/18 14:09:05;;;;;;;3.17;1.40;;;;;;;9.39;76.76;95442.38;6218072;23;20049;-83
2022/11/18 14:11:38;;;;;;;2.30;1.25;;;;;;;9.38;76.15;95443.38;6217208;23;20100;-83
2022/11/18 14:14:06;;;;;;;3.55;1.60;;;;;;;9.37;76.44;95446.97;6214954;23;20080;-83
2022/11/18 14:16:36;;;;;;;3.95;1.85;;;;;;;9.37;76.50;95446.19;6216688;23;20473;-83
2022/11/18 14:19:04;;;;;;;2.28;1.27;;;;;;;9.36;76.63;95450.59;6218068;23;20452;-83
2022/11/18 14:21:37;;;;;;;2.75;1.23;;;;;;;9.38;77.21;95450.38;6224066;23;20055;-83
2022/11/18 14:24:05;;;;;;;2.38;1.85;;;;;;;9.39;77.01;95459.81;6226192;23;20441;-83
2022/11/18 14:26:35;;;;;;;1.48;0.98;;;;;;;9.38;76.24;95456.41;6225651;23;20016;-81
2022/11/18 14:29:19;;;;;;;3.30;1.42;;;;;;;9.38;76.35;95458.19;6224142;23;20100;-81
2022/11/18 14:32:17;;;;;;;4.30;1.13;;;;;;;9.35;76.15;95459.41;6218622;23;20064;-81
2022/11/18 14:34:45;;;;;;;2.47;1.23;;;;;;;9.30;76.12;95458.41;6221122;23;20020;-80
2022/11/18 14:37:16;;;;;;;2.92;1.17;;;;;;;9.28;76.05;95469.00;6221592;23;20050;-81
2022/11/18 14:39:55;;;;;;;1.63;0.63;;;;;;;9.23;75.01;95461.81;6221718;23;20043;-81
2022/11/18 14:42:24;;;;;;;3.88;1.67;;;;;;;9.23;75.54;95471.44;6224465;23;20047;-81
2022/11/18 14:44:52;;;;;;;0.90;0.90;;;;;;;9.23;75.60;95469.63;6222418;23;20012;-81
2022/11/18 14:47:25;;;;;;;1.00;0.60;;;;;;;9.26;76.01;95478.81;6229940;23;20025;-80
2022/11/18 14:49:53;;;;;;;2.08;0.60;;;;;;;9.26;76.04;95484.03;6242666;22;20052;-80
2022/11/18 14:52:37;;;;;;;2.97;1.10;;;;;;;9.26;75.24;95484.81;6242495;22;20023;-81
2022/11/18 14:55:05;;;;;;;2.75;0.90;;;;;;;9.25;75.09;95479.84;6238631;22;20016;-81
2022/11/18 14:57:33;;;;;;;2.63;0.90;;;;;;;9.22;75.14;95480.22;6237869;23;20082;-81
2022/11/18 15:00:01;;;;;;;1.45;0.90;;;;;;;9.21;75.56;95486.44;6237034;23;20016;-81
2022/11/18 15:02:29;;;;;;;1.30;0.98;;;;;;;9.20;75.72;95493.41;6237078;23;20088;-81
2022/11/18 15:04:57;;;;;;;2.17;1.33;;;;;;;9.21;75.32;95491.66;6236731;23;20020;-81
2022/11/18 15:07:27;;;;;;;2.92;1.27;;;;;;;9.19;75.71;95491.84;6239560;23;20020;-81
2022/11/18 15:09:56;;;;;;;2.47;1.50;;;;;;;9.20;75.77;95493.41;6234626;23;20043;-81
2022/11/18 15:12:24;;;;;;;3.55;1.13;;;;;;;9.20;75.52;95495.22;6218186;23;20087;-81
2022/11/18 15:14:51;;;;;;;1.38;1.05;;;;;;;9.17;75.00;95490.44;6215395;23;20016;-81
2022/11/18 15:17:19;;;;;;;1.15;0.77;;;;;;;9.16;75.31;95497.44;6218381;23;20058;-81
2022/11/18 15:19:47;;;;;;;2.03;0.93;;;;;;;9.16;75.23;95501.81;6216494;23;20377;-80
2022/11/18 15:22:14;;;;;;;2.33;1.38;;;;;;;9.15;75.37;95495.03;6222234;23;20020;-81
2022/11/18 15:24:42;;;;;;;2.17;1.02;;;;;;;9.13;75.32;95508.25;6221246;23;20023;-81
2022/11/18 15:27:11;;;;;;;2.53;1.13;;;;;;;9.17;75.71;95513.84;6226363;23;20072;-81
2022/11/18 15:29:40;;;;;;;2.75;1.20;;;;;;;9.18;75.04;95511.06;6228190;23;20408;-81
2022/11/18 15:32:08;;;;;;;2.95;1.35;;;;;;;9.19;75.83;95517.06;6235124;23;20028;-80
2022/11/18 15:34:35;;;;;;;3.20;1.33;;;;;;;9.20;76.15;95527.25;6237529;23;20016;-81
2022/11/18 15:37:03;;;;;;;2.95;0.85;;;;;;;9.21;75.42;95526.25;6236599;23;20020;-82
2022/11/18 15:39:31;;;;;;;2.75;1.08;;;;;;;9.22;76.00;95527.06;6238653;23;20032;-82
2022/11/18 15:41:59;;;;;;;1.23;1.00;;;;;;;9.22;75.27;95529.66;6227377;23;20017;-81
2022/11/18 15:44:28;;;;;;;0.88;0.82;;;;;;;9.24;76.07;95525.06;6221207;23;20048;-80
2022/11/18 15:46:58;;;;;;;2.45;1.25;;;;;;;9.28;74.87;95534.06;6221334;23;20047;-81
2022/11/18 15:49:27;;;;;;;8.35;3.15;;;;;;;9.25;74.50;95534.47;6223130;22;20099;-80
2022/11/18 15:51:55;;;;;;;8.40;3.03;;;;;;;9.24;75.04;95540.66;6223136;23;20024;-81
2022/11/18 15:54:23;;;;;;;7.13;2.70;;;;;;;9.23;74.68;95547.69;6222377;23;20020;-81
2022/11/18 15:56:54;;;;;;;5.13;1.83;;;;;;;9.25;75.34;95544.88;6223123;23;20048;-81
2022/11/18 16:12:53;;;;;;;3.47;1.60;;;;;;;9.24;75.09;95536.25;6225935;22;20008;-81
2022/11/18 16:15:47;;;;;;;2.63;1.50;;;;;;;9.26;74.23;95543.88;6236734;23;20017;-80
2022/11/18 16:18:44;;;;;;;4.07;2.00;;;;;;;9.26;75.67;95541.28;6233045;23;20016;-80
2022/11/18 16:21:13;;;;;;;3.35;1.83;;;;;;;9.22;75.31;95540.84;6233065;23;20460;-81
2022/11/18 16:23:43;;;;;;;3.08;1.60;;;;;;;9.19;75.27;95543.06;6233632;23;20027;-81
2022/11/18 16:26:11;;;;;;;2.17;1.80;;;;;;;9.15;75.37;95552.28;6221893;23;20017;-80
2022/11/18 16:28:42;;;;;;;2.20;1.50;;;;;;;9.13;75.76;95549.84;6220245;23;20013;-81
2022/11/18 16:33:56;;;;;;;4.82;1.90;;;;;;;9.15;75.88;95557.47;6244128;22;20028;-81
2022/11/18 16:36:28;;;;;;;1.73;1.50;;;;;;;9.14;75.88;95559.28;6238313;22;20020;-81
2022/11/18 16:38:57;;;;;;;2.75;1.52;;;;;;;9.12;75.24;95561.28;6226494;23;20016;-81
2022/11/18 16:41:35;;;;;;;3.67;1.80;;;;;;;9.11;75.66;95566.66;6231766;23;20021;-81
2022/11/18 16:44:15;;;;;;;1.63;1.17;;;;;;;9.08;75.23;95568.66;6225908;23;20017;-81
2022/11/18 16:46:47;;;;;;;2.25;1.58;;;;;;;9.08;74.85;95568.66;6226478;23;20028;-81
2022/11/18 16:49:20;;;;;;;3.28;1.95;;;;;;;9.09;75.30;95572.06;6226991;23;20082;-81
2022/11/18 16:51:51;;;;;;;5.47;1.92;;;;;;;9.11;75.30;95571.88;6230431;23;20017;-81
2022/11/18 16:54:21;;;;;;;1.83;1.40;;;;;;;9.12;75.72;95573.47;6225160;23;20088;-81
2022/11/18 16:56:53;;;;;;;1.60;1.20;;;;;;;9.15;76.12;95567.88;6223271;23;20024;-80
2022/11/18 16:59:33;;;;;;;3.03;1.40;;;;;;;9.14;76.40;95581.88;6228007;23;20027;-81
2022/11/18 17:02:02;;;;;;;3.50;1.45;;;;;;;9.10;75.53;95578.88;6230246;23;20238;-81
2022/11/18 17:04:34;;;;;;;1.60;1.38;;;;;;;9.13;75.07;95593.28;6226581;23;20016;-81
2022/11/18 17:07:03;;;;;;;2.65;1.63;;;;;;;9.12;75.87;95586.47;6224987;23;20092;-81
2022/11/18 17:09:32;;;;;;;2.33;1.90;;;;;;;9.14;75.95;95594.88;6233326;23;20021;-81
2022/11/18 17:12:03;;;;;;;4.15;1.60;;;;;;;9.15;76.39;95599.09;6232309;23;20027;-82
2022/11/18 17:14:36;;;;;;;3.60;1.75;;;;;;;9.18;76.23;95603.91;6237276;23;20060;-81
2022/11/18 17:17:07;;;;;;;3.28;2.20;;;;;;;9.19;76.90;95600.31;6232930;23;20039;-80
2022/11/18 17:19:38;;;;;;;2.60;1.50;;;;;;;9.20;76.54;95599.31;6232767;23;20031;-81
2022/11/18 17:22:06;;;;;;;3.63;2.27;;;;;;;9.19;75.98;95611.53;6238970;23;20060;-80
2022/11/18 17:24:34;;;;;;;2.67;2.05;;;;;;;9.21;76.67;95614.72;6230720;23;20250;-80
2022/11/18 17:27:03;;;;;;;2.38;1.52;;;;;;;9.23;76.52;95609.34;6228641;23;20017;-80
2022/11/18 17:29:33;;;;;;;2.38;2.10;;;;;;;9.27;76.59;95618.31;6226197;23;20043;-81
2022/11/18 17:32:02;;;;;;;3.50;1.80;;;;;;;9.28;76.71;95609.53;6225128;23;20076;-80
2022/11/18 17:34:30;;;;;;;3.10;1.80;;;;;;;9.31;76.92;95613.53;6223577;23;20063;-80
2022/11/18 17:36:57;;;;;;;2.30;2.10;;;;;;;9.33;76.50;95619.34;6222067;23;20087;-80
2022/11/18 17:39:33;;;;;;;3.60;2.20;;;;;;;9.33;76.31;95630.56;6230002;23;20025;-81
2022/11/18 17:42:14;;;;;;;4.07;2.50;;;;;;;9.34;76.26;95621.75;6238711;23;20024;-81
2022/11/18 17:44:42;;;;;;;2.97;2.25;;;;;;;9.35;76.53;95625.97;6236006;23;20052;-80
2022/11/18 17:47:12;;;;;;;3.90;2.60;;;;;;;9.35;76.03;95625.97;6233946;23;20416;-80